createdAt,value
2022-08-18T00:00:20.399Z,100440.94
2022-08-18T00:03:00.447Z,100440.13
2022-08-18T00:05:30.794Z,100440.94
2022-08-18T00:07:57.190Z,100440.13
2022-08-18T00:10:23.595Z,100441.25
2022-08-18T00:12:50.255Z,100438.50
2022-08-18T00:15:16.739Z,100433.88
2022-08-18T00:17:43.019Z,100435.78
2022-08-18T00:20:09.368Z,100432.25
2022-08-18T00:22:35.710Z,100431.44
2022-08-18T00:25:02.137Z,100433.34
2022-08-18T00:27:29.029Z,100433.34
2022-08-18T00:29:55.509Z,100431.44
2022-08-18T00:32:21.840Z,100430.63
2022-08-18T00:34:49.250Z,100430.63
2022-08-18T00:37:15.748Z,100428.22
2022-08-18T00:39:46.358Z,100422.75
2022-08-18T00:42:14.462Z,100420.00
2022-08-18T00:44:54.054Z,100425.16
2022-08-18T00:47:36.437Z,100415.34
2022-08-18T00:50:06.719Z,100424.34
2022-08-18T00:52:41.640Z,100423.84
2022-08-18T00:55:08.021Z,100428.22
2022-08-18T00:57:34.448Z,100419.19
2022-08-18T01:00:01.755Z,100419.50
2022-08-18T01:02:28.169Z,100421.41
2022-08-18T01:04:54.573Z,100412.41
2022-08-18T01:07:20.887Z,100416.75
2022-08-18T01:09:47.291Z,100419.50
2022-08-18T01:12:45.051Z,100426.88
2022-08-18T01:15:00.245Z,100420.59
2022-08-18T01:17:36.613Z,100416.75
2022-08-18T01:20:04.568Z,100419.78
2022-08-18T01:22:31.230Z,100420.59
2022-08-18T01:24:57.633Z,100419.00
2022-08-18T01:27:24.148Z,100423.59
2022-08-18T01:29:50.569Z,100421.72
2022-08-18T01:32:17.025Z,100418.16
2022-08-18T01:34:43.401Z,100421.72
2022-08-18T01:37:09.846Z,100419.78
2022-08-18T01:41:23.600Z,100416.28
2022-08-18T01:42:22.811Z,100424.47
2022-08-18T01:44:49.151Z,100419.78
2022-08-18T01:47:15.581Z,100422.78
2022-08-18T01:49:42.130Z,100415.72
2022-08-18T01:52:08.397Z,100409.47
2022-08-18T01:54:34.734Z,100411.38
2022-08-18T01:57:01.527Z,100407.50
2022-08-18T01:59:28.059Z,100406.72
2022-08-18T02:01:54.436Z,100408.13
2022-08-18T02:04:35.232Z,100409.75
2022-08-18T02:07:02.728Z,100408.94
2022-08-18T02:09:30.917Z,100415.22
2022-08-18T02:11:57.534Z,100416.31
2022-08-18T02:14:26.881Z,100414.41
2022-08-18T02:16:53.950Z,100415.22
2022-08-18T02:19:27.626Z,100419.03
2022-08-18T02:21:54.210Z,100417.94
2022-08-18T02:24:20.799Z,100417.13
2022-08-18T02:26:47.183Z,100417.44
2022-08-18T02:29:13.634Z,100410.84
2022-08-18T02:31:40.108Z,100410.34
2022-08-18T02:34:06.539Z,100411.19
2022-08-18T02:36:32.922Z,100404.88
2022-08-18T02:39:00.199Z,100404.06
2022-08-18T02:41:26.827Z,100407.63
2022-08-18T02:43:55.557Z,100402.16
2022-08-18T02:46:21.925Z,100408.44
2022-08-18T02:48:49.922Z,100406.00
2022-08-18T02:51:16.474Z,100397.00
2022-08-18T02:53:42.827Z,100391.53
2022-08-18T02:56:09.200Z,100388.78
2022-08-18T02:58:35.792Z,100381.72
2022-08-18T03:01:02.157Z,100386.88
2022-08-18T03:03:28.584Z,100387.97
2022-08-18T03:05:54.898Z,100389.91
2022-08-18T03:08:21.274Z,100381.72
2022-08-18T03:10:47.634Z,100379.78
2022-08-18T03:13:13.894Z,100387.50
2022-08-18T03:15:46.438Z,100380.91
2022-08-18T03:18:13.003Z,100389.09
2022-08-18T03:20:39.679Z,100397.28
2022-08-18T03:23:10.044Z,100396.50
2022-08-18T03:25:36.678Z,100388.31
2022-08-18T03:28:03.082Z,100391.81
2022-08-18T03:30:29.437Z,100398.41
2022-08-18T03:32:55.818Z,100394.84
2022-08-18T03:35:22.185Z,100397.59
2022-08-18T03:37:48.622Z,100392.13
2022-08-18T03:40:15.333Z,100395.97
2022-08-18T03:42:41.750Z,100403.06
2022-08-18T03:45:12.988Z,100394.06
2022-08-18T03:47:43.990Z,100390.50
2022-08-18T03:50:10.410Z,100392.47
2022-08-18T03:52:41.820Z,100402.06
2022-08-18T03:55:08.447Z,100410.47
2022-08-18T03:57:38.970Z,100404.47
2022-08-18T04:00:05.865Z,100408.31
2022-08-18T04:02:32.406Z,100401.75
2022-08-18T04:04:58.745Z,100408.31
2022-08-18T04:07:25.366Z,100406.72
2022-08-18T04:09:51.765Z,100401.25
2022-08-18T04:12:18.125Z,100410.22
2022-08-18T04:14:44.651Z,100409.44
2022-08-18T04:17:11.423Z,100414.09
2022-08-18T04:19:37.709Z,100413.28
2022-08-18T04:22:04.046Z,100407.84
2022-08-18T04:24:31.866Z,100412.19
2022-08-18T04:26:58.364Z,100407.84
2022-08-18T04:29:24.788Z,100403.47
2022-08-18T04:31:51.154Z,100404.56
2022-08-18T04:34:17.586Z,100408.13
2022-08-18T04:36:43.883Z,100408.91
2022-08-18T04:39:10.486Z,100421.78
2022-08-18T04:41:37.059Z,100421.78
2022-08-18T04:44:03.506Z,100422.09
2022-08-18T04:46:29.863Z,100421.56
2022-08-18T04:48:56.199Z,100425.59
2022-08-18T04:52:26.613Z,100429.97
2022-08-18T04:54:08.928Z,100424.00
2022-08-18T04:56:35.329Z,100421.56
2022-08-18T04:59:01.695Z,100420.47
2022-08-18T05:01:28.150Z,100427.03
2022-08-18T05:03:54.644Z,100429.75
2022-08-18T05:06:20.997Z,100419.94
2022-08-18T05:08:47.382Z,100422.69
2022-08-18T05:11:13.743Z,100429.75
2022-08-18T05:13:40.110Z,100421.06
2022-08-18T05:16:11.661Z,100423.50
2022-08-18T05:18:40.626Z,100427.34
2022-08-18T05:21:09.082Z,100419.44
2022-08-18T05:23:37.728Z,100432.81
2022-08-18T05:26:04.118Z,100429.75
2022-08-18T05:28:30.478Z,100430.88
2022-08-18T05:30:57.563Z,100429.75
2022-08-18T05:33:27.232Z,100435.22
2022-08-18T05:35:54.234Z,100434.13
2022-08-18T05:38:20.591Z,100435.75
2022-08-18T05:40:47.043Z,100432.72
2022-08-18T05:43:13.543Z,100435.44
2022-08-18T05:45:40.183Z,100434.31
2022-08-18T05:48:06.601Z,100429.69
2022-08-18T05:50:34.211Z,100431.78
2022-08-18T05:53:00.571Z,100428.25
2022-08-18T05:55:27.150Z,100435.03
2022-08-18T05:57:53.788Z,100427.34
2022-08-18T06:00:21.100Z,100432.19
2022-08-18T06:02:47.670Z,100435.75
2022-08-18T06:05:14.635Z,100431.06
2022-08-18T06:07:44.818Z,100436.22
2022-08-18T06:10:11.198Z,100428.56
2022-08-18T06:12:41.184Z,100430.47
2022-08-18T06:15:10.060Z,100421.97
2022-08-18T06:17:36.453Z,100421.97
2022-08-18T06:20:05.122Z,100425.25
2022-08-18T06:22:31.480Z,100424.13
2022-08-18T06:24:57.789Z,100423.28
2022-08-18T06:27:24.620Z,100429.59
2022-08-18T06:29:51.064Z,100421.38
2022-08-18T06:32:17.527Z,100424.91
2022-08-18T06:34:44.043Z,100432.00
2022-08-18T06:37:10.427Z,100421.88
2022-08-18T06:39:37.038Z,100419.97
2022-08-18T06:42:03.487Z,100420.28
2022-08-18T06:44:29.818Z,100433.63
2022-08-18T06:46:56.191Z,100427.88
2022-08-18T06:49:22.610Z,100430.59
2022-08-18T06:51:48.956Z,100431.38
2022-08-18T06:54:15.280Z,100436.84
2022-08-18T06:56:41.654Z,100437.66
2022-08-18T06:59:08.163Z,100432.69
2022-08-18T07:01:34.758Z,100434.66
2022-08-18T07:04:01.357Z,100434.34
2022-08-18T07:06:28.016Z,100435.44
2022-08-18T07:08:54.539Z,100440.91
2022-08-18T07:11:20.834Z,100439.81
2022-08-18T07:13:54.961Z,100432.41
2022-08-18T07:16:57.183Z,100435.97
2022-08-18T07:19:20.243Z,100439.50
2022-08-18T07:21:46.669Z,100438.69
2022-08-18T07:24:24.926Z,100445.75
2022-08-18T07:26:52.969Z,100440.84
2022-08-18T07:29:19.299Z,100443.03
2022-08-18T07:31:45.703Z,100451.22
2022-08-18T07:34:12.050Z,100459.97
2022-08-18T07:36:38.438Z,100445.47
2022-08-18T07:39:04.787Z,100454.53
2022-08-18T07:41:31.251Z,100455.31
2022-08-18T07:43:57.566Z,100450.66
2022-08-18T07:46:24.035Z,100444.38
2022-08-18T07:48:50.511Z,100445.19
2022-08-18T07:51:19.654Z,100449.53
2022-08-18T07:53:54.828Z,100455.00
2022-08-18T07:56:23.018Z,100454.72
2022-08-18T07:58:49.423Z,100452.81
2022-08-18T08:01:15.942Z,100457.75
2022-08-18T08:03:42.353Z,100462.09
2022-08-18T08:06:08.654Z,100462.09
2022-08-18T08:08:35.112Z,100457.44
2022-08-18T08:11:01.910Z,100455.53
2022-08-18T08:13:53.417Z,100462.91
2022-08-18T08:16:14.616Z,100457.16
2022-08-18T08:18:40.989Z,100466.97
2022-08-18T08:21:07.818Z,100460.38
2022-08-18T08:23:34.194Z,100460.38
2022-08-18T08:26:00.507Z,100465.84
2022-08-18T08:28:26.988Z,100465.84
2022-08-18T08:30:53.337Z,100463.09
2022-08-18T08:33:19.660Z,100459.56
2022-08-18T08:35:49.100Z,100463.09
2022-08-18T08:38:39.864Z,100466.34
2022-08-18T08:41:03.438Z,100461.97
2022-08-18T08:43:29.958Z,100458.16
2022-08-18T08:45:57.818Z,100453.78
2022-08-18T08:48:24.266Z,100451.88
2022-08-18T08:50:50.737Z,100452.69
2022-08-18T08:53:17.132Z,100448.03
2022-08-18T08:58:36.521Z,100444.19
2022-08-18T09:01:02.894Z,100442.25
2022-08-18T09:03:29.965Z,100440.66
2022-08-18T09:05:57.368Z,100440.34
2022-08-18T09:08:23.836Z,100439.53
2022-08-18T09:10:50.190Z,100430.53
2022-08-18T09:13:16.602Z,100431.31
2022-08-18T09:15:43.181Z,100434.88
2022-08-18T09:18:09.527Z,100422.00
2022-08-18T09:20:37.275Z,100414.63
2022-08-18T09:23:03.661Z,100404.53
2022-08-18T09:25:30.127Z,100415.44
2022-08-18T09:28:10.342Z,100407.25
2022-08-18T09:30:37.102Z,100406.13
2022-08-18T09:33:03.543Z,100394.38
2022-08-18T09:35:44.972Z,100396.81
2022-08-18T09:41:05.105Z,100390.56
2022-08-18T09:43:33.895Z,100386.69
2022-08-18T09:46:03.300Z,100390.22
2022-08-18T09:48:30.365Z,100381.25
2022-08-18T09:50:57.050Z,100373.03
2022-08-18T09:53:23.427Z,100372.72
2022-08-18T09:55:51.964Z,100360.16
2022-08-18T09:58:18.673Z,100352.78
2022-08-18T10:00:44.994Z,100356.34
2022-08-18T10:03:11.396Z,100351.66
2022-08-18T10:05:37.691Z,100345.41
2022-08-18T10:08:04.375Z,100348.94
2022-08-18T10:10:59.419Z,100346.19
2022-08-18T10:13:24.959Z,100339.59
2022-08-18T10:15:51.789Z,100345.91
2022-08-18T10:18:18.238Z,100347.81
2022-08-18T10:20:44.540Z,100337.69
2022-08-18T10:23:10.932Z,100342.34
2022-08-18T10:25:37.341Z,100345.59
2022-08-18T10:28:03.754Z,100352.66
2022-08-18T10:30:31.145Z,100353.78
2022-08-18T10:33:03.122Z,100356.22
2022-08-18T10:35:43.876Z,100353.50
2022-08-18T10:38:10.323Z,100357.34
2022-08-18T10:40:36.765Z,100352.66
2022-08-18T10:43:10.649Z,100352.66
2022-08-18T10:45:59.493Z,100356.22
2022-08-18T10:48:33.161Z,100342.25
2022-08-18T10:50:59.598Z,100339.81
2022-08-18T10:56:12.594Z,100342.25
2022-08-18T10:58:38.968Z,100334.84
2022-08-18T11:01:05.306Z,100331.31
2022-08-18T11:03:52.312Z,100337.59
2022-08-18T11:06:21.528Z,100326.66
2022-08-18T11:08:48.271Z,100338.41
2022-08-18T11:11:34.246Z,100336.16
2022-08-18T11:14:07.796Z,100338.09
2022-08-18T11:16:35.598Z,100331.81
2022-08-18T11:19:02.540Z,100327.16
2022-08-18T11:21:30.692Z,100325.22
2022-08-18T11:23:57.054Z,100324.44
2022-08-18T11:26:24.311Z,100313.50
2022-08-18T11:31:42.395Z,100306.91
2022-08-18T11:34:08.767Z,100307.72
2022-08-18T11:36:37.507Z,100315.09
2022-08-18T11:39:16.462Z,100328.47
2022-08-18T11:41:48.507Z,100325.75
2022-08-18T11:44:16.719Z,100327.34
2022-08-18T11:46:47.543Z,100330.38
2022-08-18T11:49:26.196Z,100323.78
2022-08-18T11:51:52.968Z,100310.13
2022-08-18T11:54:19.529Z,100312.84
2022-08-18T11:56:46.139Z,100303.56
2022-08-18T11:59:12.475Z,100307.09
2022-08-18T12:01:42.367Z,100308.22
2022-08-18T12:04:09.054Z,100304.34
2022-08-18T12:06:37.611Z,100313.38
2022-08-18T12:09:09.471Z,100307.91
2022-08-18T12:11:41.317Z,100313.88
2022-08-18T12:14:31.763Z,100305.19
2022-08-18T12:16:55.651Z,100310.03
2022-08-18T12:19:23.436Z,100313.06
2022-08-18T12:21:50.793Z,100316.59
2022-08-18T12:24:17.966Z,100313.88
2022-08-18T12:26:52.876Z,100310.03
2022-08-18T12:29:20.450Z,100315.50
2022-08-18T12:31:48.745Z,100312.78
2022-08-18T12:34:17.926Z,100308.09
2022-08-18T12:36:51.734Z,100309.69
2022-08-18T12:39:18.101Z,100305.34
2022-08-18T12:41:46.817Z,100300.72
2022-08-18T12:44:13.654Z,100297.97
2022-08-18T12:46:40.048Z,100292.50
2022-08-18T12:49:09.392Z,100294.94
2022-08-18T12:51:35.733Z,100287.03
2022-08-18T12:54:02.078Z,100285.91
2022-08-18T12:59:13.736Z,100287.53
2022-08-18T13:04:26.860Z,100287.84
2022-08-18T13:09:53.384Z,100290.25
2022-08-18T13:12:20.426Z,100289.47
2022-08-18T13:14:46.822Z,100279.31
2022-08-18T13:17:30.060Z,100274.16
2022-08-18T13:20:00.428Z,100267.59
2022-08-18T13:22:31.939Z,100267.59
2022-08-18T13:24:59.602Z,100269.22
2022-08-18T13:27:26.749Z,100271.13
2022-08-18T13:29:59.215Z,100285.63
2022-08-18T13:32:25.929Z,100287.53
2022-08-18T13:34:54.590Z,100291.91
2022-08-18T13:40:07.220Z,100281.75
2022-08-18T13:42:50.337Z,100278.22
2022-08-18T13:48:10.079Z,100275.16
2022-08-18T13:50:36.591Z,100274.69
2022-08-18T13:53:05.794Z,100280.97
2022-08-18T13:55:32.756Z,100280.16
2022-08-18T13:57:59.145Z,100284.50
2022-08-18T14:00:30.641Z,100276.28
2022-08-18T14:02:57.999Z,100285.31
2022-08-18T14:05:36.852Z,100294.28
2022-08-18T14:08:10.658Z,100298.97
2022-08-18T14:10:37.171Z,100302.84
2022-08-18T14:13:20.201Z,100323.59
2022-08-18T14:15:53.543Z,100353.66
2022-08-18T14:21:10.533Z,100385.09
2022-08-18T14:23:39.393Z,100348.66
2022-08-18T14:26:19.849Z,100315.06
2022-08-18T14:28:47.565Z,100299.78
2022-08-18T14:31:14.109Z,100322.75
2022-08-18T14:33:51.389Z,100347.06
2022-08-18T14:36:19.782Z,100349.78
2022-08-18T14:38:46.145Z,100330.97
2022-08-18T14:41:13.213Z,100329.84
2022-08-18T14:43:55.638Z,100334.50
2022-08-18T14:46:30.654Z,100347.88
2022-08-18T14:48:59.276Z,100356.09
2022-08-18T14:51:27.155Z,100351.41
2022-08-18T14:53:53.884Z,100334.22
2022-08-18T14:56:22.210Z,100329.53
2022-08-18T14:58:50.810Z,100338.56
2022-08-18T15:01:18.015Z,100345.16
2022-08-18T15:03:44.621Z,100351.41
2022-08-18T15:06:16.884Z,100353.06
2022-08-18T15:08:45.366Z,100350.31
2022-08-18T15:11:13.491Z,100351.09
2022-08-18T15:13:41.146Z,100355.78
2022-08-18T15:16:08.299Z,100348.66
2022-08-18T15:18:35.888Z,100341.59
2022-08-18T15:21:02.195Z,100334.22
2022-08-18T15:23:28.605Z,100345.16
2022-08-18T15:25:55.246Z,100345.94
2022-08-18T15:28:23.633Z,100350.63
2022-08-18T15:30:51.162Z,100351.41
2022-08-18T15:33:17.670Z,100338.88
2022-08-18T15:35:48.413Z,100342.41
2022-08-18T15:38:14.820Z,100337.25
2022-08-18T15:40:43.609Z,100346.25
2022-08-18T15:43:10.574Z,100330.19
2022-08-18T15:45:37.076Z,100324.72
2022-08-18T15:48:09.863Z,100314.25
2022-08-18T15:50:39.123Z,100306.34
2022-08-18T15:53:08.009Z,100300.59
2022-08-18T15:55:35.970Z,100297.03
2022-08-18T15:58:04.114Z,100293.50
2022-08-18T16:00:41.098Z,100291.91
2022-08-18T16:03:08.895Z,100300.09
2022-08-18T16:05:35.564Z,100293.00
2022-08-18T16:08:02.065Z,100298.47
2022-08-18T16:10:28.358Z,100293.00
2022-08-18T16:12:54.717Z,100295.72
2022-08-18T16:15:21.668Z,100290.25
2022-08-18T16:17:48.249Z,100287.22
2022-08-18T16:20:14.742Z,100282.88
2022-08-18T16:22:41.070Z,100284.78
2022-08-18T16:25:07.413Z,100275.50
2022-08-18T16:27:33.819Z,100276.59
2022-08-18T16:30:00.335Z,100269.22
2022-08-18T16:35:11.342Z,100253.63
2022-08-18T16:37:38.462Z,100257.47
2022-08-18T16:40:04.865Z,100262.13
2022-08-18T16:42:31.270Z,100258.59
2022-08-18T16:44:57.638Z,100252.00
2022-08-18T16:47:24.009Z,100248.94
2022-08-18T16:49:50.645Z,100241.06
2022-08-18T16:52:17.227Z,100244.09
2022-08-18T16:54:44.481Z,100234.50
2022-08-18T16:57:10.859Z,100237.22
2022-08-18T16:59:37.211Z,100235.09
2022-08-18T17:02:03.554Z,100226.59
2022-08-18T17:04:29.977Z,100229.03
2022-08-18T17:06:56.439Z,100219.19
2022-08-18T17:09:22.782Z,100210.97
2022-08-18T17:11:51.924Z,100220.00
2022-08-18T17:14:19.712Z,100210.69
2022-08-18T17:16:46.201Z,100218.88
2022-08-18T17:19:12.553Z,100209.88
2022-08-18T17:21:38.879Z,100208.25
2022-08-18T17:24:05.334Z,100218.88
2022-08-18T17:26:32.346Z,100215.34
2022-08-18T17:28:58.687Z,100225.47
2022-08-18T17:31:25.173Z,100229.34
2022-08-18T17:33:53.601Z,100240.28
2022-08-18T17:36:19.947Z,100245.72
2022-08-18T17:38:46.350Z,100241.06
2022-08-18T17:41:12.674Z,100252.00
2022-08-18T17:46:10.454Z,100263.75
2022-08-18T17:48:36.762Z,100267.31
2022-08-18T17:51:03.378Z,100262.63
2022-08-18T17:53:29.659Z,100270.03
2022-08-18T17:55:56.250Z,100275.50
2022-08-18T17:58:22.568Z,100280.97
2022-08-18T18:00:48.983Z,100287.22
2022-08-18T18:03:15.387Z,100293.81
2022-08-18T18:05:41.659Z,100294.63
2022-08-18T18:08:08.330Z,100302.00
2022-08-18T18:10:37.712Z,100295.72
2022-08-18T18:13:06.821Z,100310.22
2022-08-18T18:15:33.198Z,100315.69
2022-08-18T18:17:59.596Z,100314.88
2022-08-18T18:20:26.188Z,100314.88
2022-08-18T18:22:52.624Z,100318.41
2022-08-18T18:25:18.947Z,100325.50
2022-08-18T18:27:48.623Z,100321.47
2022-08-18T18:30:16.460Z,100324.19
2022-08-18T18:32:59.177Z,100327.75
2022-08-18T18:35:27.764Z,100334.00
2022-08-18T18:37:54.587Z,100326.94
2022-08-18T18:40:21.119Z,100327.75
2022-08-18T18:42:47.610Z,100334.31
2022-08-18T18:45:14.093Z,100334.31
2022-08-18T18:47:40.706Z,100328.84
2022-08-18T18:50:07.068Z,100326.94
2022-08-18T18:52:33.429Z,100328.03
2022-08-18T18:55:00.159Z,100337.38
2022-08-18T18:57:26.756Z,100329.97
2022-08-18T18:59:53.170Z,100326.44
2022-08-18T19:02:34.229Z,100340.09
2022-08-18T19:05:01.559Z,100327.22
2022-08-18T19:07:28.104Z,100336.25
2022-08-18T19:09:54.471Z,100333.81
2022-08-18T19:15:04.657Z,100338.47
2022-08-18T19:17:31.093Z,100345.56
2022-08-18T19:20:01.233Z,100337.94
2022-08-18T19:22:27.987Z,100328.84
2022-08-18T19:24:54.334Z,100319.03
2022-08-18T19:27:23.575Z,100313.38
2022-08-18T19:29:51.142Z,100323.19
2022-08-18T19:32:17.845Z,100325.13
2022-08-18T19:34:51.639Z,100331.69
2022-08-18T19:37:22.716Z,100329.78
2022-08-18T19:39:57.318Z,100322.06
2022-08-18T19:42:25.301Z,100311.75
2022-08-18T19:45:14.989Z,100300.84
2022-08-18T19:47:37.997Z,100298.88
2022-08-18T19:50:04.393Z,100286.34
2022-08-18T19:52:46.674Z,100270.75
2022-08-18T19:55:13.376Z,100275.41
2022-08-18T19:57:39.794Z,100275.72
2022-08-18T20:00:06.430Z,100273.81
2022-08-18T20:02:32.992Z,100274.59
2022-08-18T20:04:59.508Z,100280.88
2022-08-18T20:07:25.984Z,100287.47
2022-08-18T20:09:52.391Z,100282.00
2022-08-18T20:12:18.769Z,100282.78
2022-08-18T20:14:45.241Z,100286.66
2022-08-18T20:17:11.655Z,100285.03
2022-08-18T20:19:38.233Z,100268.63
2022-08-18T20:22:04.544Z,100266.72
2022-08-18T20:24:31.138Z,100253.84
2022-08-18T20:26:57.996Z,100251.41
2022-08-18T20:29:24.385Z,100260.44
2022-08-18T20:31:50.753Z,100253.38
2022-08-18T20:34:17.182Z,100259.44
2022-08-18T20:36:44.139Z,100263.78
2022-08-18T20:39:10.470Z,100260.25
2022-08-18T20:41:39.212Z,100252.38
2022-08-18T20:44:05.819Z,100260.34
2022-08-18T20:46:36.247Z,100257.31
2022-08-18T20:49:03.941Z,100259.25
2022-08-18T20:51:30.217Z,100261.19
2022-08-18T20:53:56.578Z,100249.13
2022-08-18T20:56:32.584Z,100241.44
2022-08-18T20:59:09.638Z,100247.22
2022-08-18T21:01:35.961Z,100241.44
2022-08-18T21:04:02.787Z,100258.31
2022-08-18T21:06:29.144Z,100245.91
2022-08-18T21:08:55.681Z,100255.22
2022-08-18T21:11:29.726Z,100253.28
2022-08-18T21:13:58.777Z,100246.38
2022-08-18T21:16:37.931Z,100243.66
2022-08-18T21:19:05.314Z,100235.75
2022-08-18T21:21:31.816Z,100233.38
2022-08-18T21:23:58.189Z,100238.31
2022-08-18T21:26:24.572Z,100229.81
2022-08-18T21:28:50.928Z,100229.50
2022-08-18T21:31:43.259Z,100232.25
2022-08-18T21:34:03.698Z,100235.75
2022-08-18T21:36:30.058Z,100238.19
2022-08-18T21:39:03.406Z,100235.75
2022-08-18T21:41:32.641Z,100238.81
2022-08-18T21:43:58.983Z,100239.91
2022-08-18T21:46:25.508Z,100235.88
2022-08-18T21:48:51.829Z,100239.91
2022-08-18T21:51:18.347Z,100232.84
2022-08-18T21:53:44.725Z,100241.03
2022-08-18T21:56:11.087Z,100242.16
2022-08-18T21:58:37.538Z,100237.81
2022-08-18T22:01:03.995Z,100235.09
2022-08-18T22:03:30.379Z,100244.38
2022-08-18T22:05:58.753Z,100243.28
2022-08-18T22:08:26.366Z,100242.47
2022-08-18T22:10:52.762Z,100236.19
2022-08-18T22:13:19.106Z,100238.44
2022-08-18T22:15:45.485Z,100234.28
2022-08-18T22:18:13.950Z,100231.84
2022-08-18T22:20:40.651Z,100231.84
2022-08-18T22:23:07.170Z,100224.78
2022-08-18T22:25:33.580Z,100234.56
2022-08-18T22:27:59.945Z,100225.59
2022-08-18T22:30:26.392Z,100222.34
2022-08-18T22:32:53.968Z,100219.63
2022-08-18T22:35:20.734Z,100220.13
2022-08-18T22:37:50.678Z,100227.81
2022-08-18T22:40:17.401Z,100229.94
2022-08-18T22:42:48.386Z,100223.66
2022-08-18T22:45:14.696Z,100218.19
2022-08-18T22:47:43.051Z,100212.22
2022-08-18T22:50:11.316Z,100212.28
2022-08-18T22:52:37.663Z,100204.81
2022-08-18T22:55:06.586Z,100208.69
2022-08-18T22:57:33.334Z,100212.22
2022-08-18T23:00:01.753Z,100206.78
2022-08-18T23:02:28.277Z,100205.66
2022-08-18T23:07:38.462Z,100185.69
2022-08-18T23:10:08.314Z,100195.03
2022-08-18T23:12:40.535Z,100201.31
2022-08-18T23:15:06.867Z,100205.13
2022-08-18T23:17:33.375Z,100205.13
2022-08-18T23:19:59.664Z,100204.34
2022-08-18T23:22:26.626Z,100203.53
2022-08-18T23:24:52.998Z,100207.38
2022-08-18T23:27:19.394Z,100196.44
2022-08-18T23:29:45.679Z,100192.09
2022-08-18T23:32:11.994Z,100190.81
2022-08-18T23:34:38.395Z,100196.75
2022-08-18T23:37:04.804Z,100197.56
2022-08-18T23:39:31.305Z,100188.25
2022-08-18T23:41:57.885Z,100190.16
2022-08-18T23:44:27.503Z,100194.03
2022-08-18T23:46:54.673Z,100193.22
2022-08-18T23:49:21.049Z,100186.13
2022-08-18T23:51:47.454Z,100182.59
2022-08-18T23:54:13.854Z,100191.59
2022-08-18T23:56:40.177Z,100182.59
2022-08-18T23:59:06.478Z,100186.13
